Time;durP1;ratioP1;P1;durP2;ratioP2;P2;SDS_P1;SDS_P2;PMS_P1;PMS_P2;Temp;Humidity;BMP_temperature;BMP_pressure;BME280_temperature;BME280_humidity;BME280_pressure;Samples;Min_cycle;Max_cycle;Signal;HPM_P1;HPM_P2
2023/11/18 00:00:19;;;;;;;16.70;13.70;;;5.90;99.90;;;;;;5051703;28;20429;-64
2023/11/18 00:02:46;;;;;;;17.80;13.87;;;5.90;99.90;;;;;;5051005;28;20734;-64
2023/11/18 00:05:12;;;;;;;17.13;13.40;;;5.90;99.90;;;;;;5051162;28;20461;-64
2023/11/18 00:07:38;;;;;;;17.10;12.97;;;5.90;99.90;;;;;;5052258;28;20417;-63
2023/11/18 00:10:05;;;;;;;16.53;12.80;;;5.90;99.90;;;;;;5051177;28;20723;-64
2023/11/18 00:12:31;;;;;;;16.52;12.32;;;5.90;99.90;;;;;;5052441;28;20405;-64
2023/11/18 00:14:56;;;;;;;19.07;13.77;;;5.80;99.90;;;;;;5054886;28;20232;-64
2023/11/18 00:17:22;;;;;;;16.07;11.50;;;5.80;99.90;;;;;;5072128;28;20228;-64
2023/11/18 00:19:48;;;;;;;20.93;13.03;;;5.80;99.90;;;;;;5071636;28;20174;-63
2023/11/18 00:22:14;;;;;;;17.87;13.53;;;5.80;99.90;;;;;;5072043;28;20220;-63
2023/11/18 00:24:39;;;;;;;16.63;13.40;;;5.80;99.90;;;;;;5071542;28;20539;-63
2023/11/18 00:27:06;;;;;;;20.40;14.00;;;5.70;99.90;;;;;;5071793;28;20205;-64
2023/11/18 00:29:35;;;;;;;16.93;12.23;;;5.70;99.90;;;;;;5072009;28;20605;-64
2023/11/18 00:32:02;;;;;;;18.73;14.63;;;5.80;99.90;;;;;;5081375;28;20493;-64
2023/11/18 00:34:29;;;;;;;20.50;14.63;;;5.70;99.90;;;;;;5078461;28;20423;-64
2023/11/18 00:36:57;;;;;;;20.20;12.97;;;5.70;99.90;;;;;;5053421;28;20950;-63
2023/11/18 00:39:23;;;;;;;19.63;14.27;;;5.80;99.90;;;;;;5071759;28;20461;-64
2023/11/18 00:41:49;;;;;;;18.70;13.80;;;5.60;99.90;;;;;;5071320;28;20165;-64
2023/11/18 00:44:15;;;;;;;20.70;14.60;;;5.60;99.90;;;;;;5071748;28;20411;-63
2023/11/18 00:46:41;;;;;;;22.53;14.40;;;5.60;99.90;;;;;;5071882;28;20646;-63
2023/11/18 00:49:07;;;;;;;20.33;14.83;;;5.60;99.90;;;;;;5071264;28;20171;-63
2023/11/18 00:51:32;;;;;;;19.23;14.40;;;5.60;99.90;;;;;;5071520;28;20428;-64
2023/11/18 00:54:01;;;;;;;17.63;13.40;;;5.60;99.90;;;;;;5071164;28;20399;-63
2023/11/18 00:56:28;;;;;;;21.75;13.80;;;5.60;99.90;;;;;;5076724;28;20200;-63
2023/11/18 00:58:54;;;;;;;17.90;13.67;;;5.70;99.90;;;;;;5091393;28;20168;-63
2023/11/18 01:01:21;;;;;;;20.80;12.60;;;5.60;99.90;;;;;;5092093;28;20399;-63
2023/11/18 01:03:47;;;;;;;20.27;14.17;;;5.70;99.90;;;;;;5073304;28;20395;-63
2023/11/18 01:06:15;;;;;;;19.23;13.50;;;5.70;99.90;;;;;;5072975;28;20435;-63
2023/11/18 01:08:44;;;;;;;15.73;11.50;;;5.70;99.90;;;;;;5071807;28;20412;-64
2023/11/18 01:11:10;;;;;;;15.98;12.15;;;5.60;99.90;;;;;;5071296;28;20252;-64
2023/11/18 01:13:36;;;;;;;18.50;12.90;;;5.50;99.90;;;;;;5073857;28;20284;-64
2023/11/18 01:16:01;;;;;;;19.20;13.10;;;5.60;99.90;;;;;;5074259;28;20447;-63
2023/11/18 01:18:28;;;;;;;20.70;12.40;;;5.60;99.90;;;;;;5068438;28;20178;-64
2023/11/18 01:20:53;;;;;;;17.00;12.45;;;5.50;99.90;;;;;;5054799;28;20225;-63
2023/11/18 01:23:19;;;;;;;18.43;13.03;;;5.50;99.90;;;;;;5055258;28;20186;-63
2023/11/18 01:25:45;;;;;;;22.33;13.37;;;5.50;99.90;;;;;;5055151;28;20430;-64
2023/11/18 01:28:11;;;;;;;19.60;13.47;;;5.50;99.90;;;;;;5052503;28;20247;-63
2023/11/18 01:30:36;;;;;;;19.07;13.57;;;5.80;99.90;;;;;;5054848;28;20178;-63
2023/11/18 01:33:03;;;;;;;28.90;16.53;;;5.60;99.90;;;;;;5067703;28;20167;-63
2023/11/18 01:35:31;;;;;;;27.37;17.43;;;5.60;99.90;;;;;;5074808;28;20170;-63
2023/11/18 01:37:57;;;;;;;34.30;17.67;;;5.60;99.90;;;;;;5069353;28;20390;-63
2023/11/18 01:40:23;;;;;;;29.20;18.10;;;5.60;99.90;;;;;;5055016;28;20414;-63
2023/11/18 01:42:49;;;;;;;25.60;17.15;;;5.90;99.90;;;;;;5054329;28;20455;-63
2023/11/18 01:45:19;;;;;;;27.33;16.60;;;5.60;99.90;;;;;;5054860;28;20226;-63
2023/11/18 01:47:48;;;;;;;23.43;15.70;;;5.60;99.90;;;;;;5054522;28;20406;-63
2023/11/18 01:50:14;;;;;;;23.70;13.90;;;5.60;99.90;;;;;;5054501;28;20414;-64
2023/11/18 01:52:41;;;;;;;23.20;14.30;;;5.70;99.90;;;;;;5054541;28;20425;-64
2023/11/18 01:55:07;;;;;;;29.53;17.20;;;5.60;99.90;;;;;;5053807;28;20863;-63
2023/11/18 01:57:34;;;;;;;29.00;15.20;;;5.70;99.90;;;;;;5050742;28;20412;-63
2023/11/18 02:00:00;;;;;;;23.70;16.33;;;5.70;99.90;;;;;;5035097;28;20450;-63
2023/11/18 02:02:26;;;;;;;31.17;18.70;;;5.70;99.90;;;;;;5034431;28;20418;-64
2023/11/18 02:04:52;;;;;;;29.53;16.60;;;5.40;99.90;;;;;;5046955;28;20438;-63
2023/11/18 02:07:18;;;;;;;26.93;16.40;;;5.70;99.90;;;;;;5045991;28;20516;-64
2023/11/18 02:09:45;;;;;;;25.00;15.97;;;5.80;99.90;;;;;;5034387;28;20533;-62
2023/11/18 02:12:29;;;;;;;25.00;15.97;;;5.70;99.90;;;;;;5053707;28;20409;-63
2023/11/18 02:14:57;;;;;;;21.37;13.40;;;5.80;99.90;;;;;;5055394;28;20463;-63
2023/11/18 02:17:24;;;;;;;18.10;12.10;;;5.80;99.90;;;;;;5074255;28;20390;-64
2023/11/18 02:19:57;;;;;;;19.97;13.50;;;5.70;99.90;;;;;;5073335;28;20450;-62
2023/11/18 02:22:24;;;;;;;18.33;12.50;;;5.80;99.90;;;;;;5073936;28;20416;-63
2023/11/18 02:24:50;;;;;;;18.13;12.55;;;5.80;99.90;;;;;;5063920;28;20498;-60
2023/11/18 02:27:18;;;;;;;16.70;11.77;;;5.80;99.90;;;;;;5053727;28;20221;-63
2023/11/18 02:29:48;;;;;;;16.42;12.18;;;5.40;99.90;;;;;;5037787;28;20174;-63
2023/11/18 02:32:36;;;;;;;22.33;13.15;;;5.40;99.90;;;;;;5033010;28;20175;-64
2023/11/18 02:35:05;;;;;;;18.80;12.35;;;5.70;99.90;;;;;;5032632;28;20237;-63
2023/11/18 02:37:32;;;;;;;17.85;12.40;;;5.80;99.90;;;;;;5033735;28;20167;-64
2023/11/18 02:40:08;;;;;;;19.33;12.47;;;5.70;99.90;;;;;;5039777;28;20540;-63
2023/11/18 02:42:37;;;;;;;22.90;13.20;;;5.30;99.90;;;;;;5048732;28;20431;-63
2023/11/18 02:45:07;;;;;;;15.40;11.20;;;5.70;99.90;;;;;;5032906;28;20823;-64
2023/11/18 02:47:33;;;;;;;18.27;11.90;;;5.60;99.90;;;;;;5034842;28;20405;-64
2023/11/18 02:50:05;;;;;;;17.97;12.20;;;5.60;99.90;;;;;;5044604;28;20426;-63
2023/11/18 02:52:34;;;;;;;17.07;11.67;;;5.70;99.90;;;;;;5032906;28;20394;-64
2023/11/18 02:55:00;;;;;;;18.63;12.07;;;5.20;99.90;;;;;;5069135;28;20791;-64
2023/11/18 02:57:25;;;;;;;17.10;12.50;;;5.70;99.90;;;;;;5050560;28;20213;-64
2023/11/18 02:59:51;;;;;;;17.17;12.17;;;5.80;99.90;;;;;;5032768;28;20179;-63
2023/11/18 03:02:20;;;;;;;18.30;12.52;;;5.70;99.90;;;;;;5048603;28;20176;-64
2023/11/18 03:04:46;;;;;;;19.75;11.30;;;5.70;99.90;;;;;;5032664;28;20647;-64
2023/11/18 03:07:12;;;;;;;16.27;11.90;;;5.90;99.90;;;;;;5032379;28;20446;-63
2023/11/18 03:09:39;;;;;;;19.40;12.97;;;5.20;99.90;;;;;;5033067;28;20217;-64
2023/11/18 03:12:07;;;;;;;18.27;12.43;;;5.30;99.90;;;;;;5047394;28;20200;-63
2023/11/18 03:14:34;;;;;;;20.17;13.93;;;5.80;99.90;;;;;;5060477;28;20408;-62
2023/11/18 03:17:01;;;;;;;21.50;13.40;;;5.90;99.90;;;;;;5046491;28;20428;-62
2023/11/18 03:19:27;;;;;;;26.83;15.20;;;5.90;99.90;;;;;;5051841;28;20429;-63
2023/11/18 03:21:53;;;;;;;27.93;16.17;;;6.00;99.90;;;;;;5051719;28;20451;-63
2023/11/18 03:24:19;;;;;;;26.53;14.70;;;5.90;99.90;;;;;;5051395;28;20212;-62
2023/11/18 03:26:44;;;;;;;21.37;14.00;;;5.90;99.90;;;;;;5049961;28;20880;-62
2023/11/18 03:29:11;;;;;;;29.60;15.70;;;5.50;99.90;;;;;;5051063;28;20565;-62
2023/11/18 03:31:36;;;;;;;24.67;14.73;;;5.90;99.90;;;;;;5052737;28;20262;-62
2023/11/18 03:34:02;;;;;;;18.53;13.60;;;6.00;99.90;;;;;;5051005;28;20516;-62
2023/11/18 03:36:28;;;;;;;22.47;14.37;;;5.90;99.90;;;;;;5051344;28;20524;-62
2023/11/18 03:38:54;;;;;;;19.77;13.47;;;6.00;99.90;;;;;;5052388;28;20425;-59
2023/11/18 03:41:20;;;;;;;17.43;12.40;;;6.00;99.90;;;;;;5051365;28;20176;-63
2023/11/18 03:43:47;;;;;;;20.47;14.30;;;6.00;99.90;;;;;;5051539;28;20455;-63
2023/11/18 03:46:15;;;;;;;20.60;13.20;;;6.10;99.90;;;;;;5051818;28;20196;-63
2023/11/18 03:48:44;;;;;;;18.70;13.40;;;6.00;99.90;;;;;;5033975;28;20425;-63
2023/11/18 03:51:10;;;;;;;18.60;12.73;;;6.10;99.90;;;;;;5050684;28;20423;-62
2023/11/18 03:53:35;;;;;;;20.40;14.07;;;6.00;99.90;;;;;;5052358;28;20402;-63
2023/11/18 03:56:02;;;;;;;18.97;12.83;;;6.00;99.90;;;;;;5050610;28;20453;-62
2023/11/18 03:58:28;;;;;;;19.23;13.60;;;6.00;99.90;;;;;;5051331;28;20179;-63
2023/11/18 04:00:54;;;;;;;17.23;12.93;;;6.00;99.90;;;;;;5051289;28;20392;-62
2023/11/18 04:03:19;;;;;;;18.50;13.00;;;6.00;99.90;;;;;;5051648;28;20409;-63
2023/11/18 04:05:46;;;;;;;19.90;13.53;;;6.00;99.90;;;;;;5051105;28;20231;-63
2023/11/18 04:08:12;;;;;;;22.63;13.60;;;5.90;99.90;;;;;;5050567;28;20176;-64
2023/11/18 04:10:38;;;;;;;15.73;12.30;;;6.00;99.90;;;;;;5051659;28;20695;-63
2023/11/18 04:13:04;;;;;;;19.50;14.57;;;6.00;99.90;;;;;;5049473;28;20407;-63
2023/11/18 04:15:30;;;;;;;18.03;12.83;;;6.00;99.90;;;;;;5058521;28;20217;-61
2023/11/18 04:17:55;;;;;;;20.23;13.13;;;6.00;99.90;;;;;;5032384;28;20184;-62
2023/11/18 04:20:21;;;;;;;15.63;12.43;;;5.60;99.90;;;;;;5038656;28;20179;-62
2023/11/18 04:22:47;;;;;;;15.23;13.23;;;6.10;99.90;;;;;;5051179;28;20171;-62
2023/11/18 04:25:13;;;;;;;16.80;12.63;;;5.70;99.90;;;;;;5050891;28;20198;-62
2023/11/18 04:27:39;;;;;;;17.67;12.80;;;6.10;99.90;;;;;;5038699;28;20206;-63
2023/11/18 04:30:06;;;;;;;15.17;11.90;;;6.20;99.90;;;;;;5031237;28;20624;-62
2023/11/18 04:32:35;;;;;;;20.37;13.30;;;6.10;99.90;;;;;;5052084;28;20467;-63
2023/11/18 04:35:06;;;;;;;19.03;12.97;;;6.10;99.90;;;;;;5034346;28;20771;-62
2023/11/18 04:37:36;;;;;;;14.13;11.50;;;6.10;99.90;;;;;;5032034;28;20740;-62
2023/11/18 04:40:02;;;;;;;16.40;12.00;;;6.10;99.90;;;;;;5031508;28;20413;-62
2023/11/18 04:42:29;;;;;;;16.57;12.70;;;6.20;99.90;;;;;;5053346;28;20424;-63
2023/11/18 04:44:56;;;;;;;15.87;11.60;;;5.80;99.90;;;;;;5043407;28;20466;-63
2023/11/18 04:47:22;;;;;;;18.03;12.80;;;6.30;99.90;;;;;;5048238;28;20440;-62
2023/11/18 04:49:48;;;;;;;17.67;13.10;;;6.50;99.90;;;;;;5053937;28;20426;-63
2023/11/18 04:52:13;;;;;;;16.27;11.07;;;6.60;99.90;;;;;;5052181;28;20267;-62
2023/11/18 04:54:39;;;;;;;16.37;12.30;;;6.30;99.90;;;;;;5054514;28;20252;-61
2023/11/18 04:57:06;;;;;;;14.97;12.60;;;6.30;99.90;;;;;;5054436;28;20264;-62
2023/11/18 04:59:32;;;;;;;16.20;11.80;;;6.40;99.90;;;;;;5053857;28;20178;-63
2023/11/18 05:01:58;;;;;;;17.13;12.43;;;6.50;99.90;;;;;;5053524;28;20753;-60
2023/11/18 05:04:23;;;;;;;15.00;11.70;;;6.60;99.90;;;;;;5057326;28;20709;-62
2023/11/18 05:06:49;;;;;;;15.93;11.93;;;6.40;99.90;;;;;;5053165;28;20161;-62
2023/11/18 05:09:18;;;;;;;14.40;11.60;;;6.40;99.90;;;;;;5054788;28;20560;-63
2023/11/18 05:11:44;;;;;;;15.90;11.93;;;6.40;99.90;;;;;;5053973;28;20457;-62
2023/11/18 05:14:11;;;;;;;14.80;11.03;;;6.40;99.90;;;;;;5051599;28;20513;-62
2023/11/18 05:16:37;;;;;;;17.10;12.40;;;6.40;99.90;;;;;;5041695;28;20957;-63
2023/11/18 05:19:03;;;;;;;14.47;12.10;;;6.30;99.90;;;;;;5053264;28;20435;-62
2023/11/18 05:21:29;;;;;;;15.83;11.73;;;6.40;99.90;;;;;;5055180;28;20163;-63
2023/11/18 05:23:55;;;;;;;15.73;11.57;;;6.40;99.90;;;;;;5054641;28;20418;-62
2023/11/18 05:26:20;;;;;;;14.40;12.03;;;6.60;99.90;;;;;;5054007;28;20430;-62
2023/11/18 05:28:46;;;;;;;16.70;12.30;;;6.30;99.90;;;;;;5053612;28;20182;-62
2023/11/18 05:31:12;;;;;;;18.67;12.63;;;6.30;99.90;;;;;;5053138;28;20167;-61
2023/11/18 05:33:38;;;;;;;16.30;12.00;;;6.40;99.90;;;;;;5051963;28;20508;-62
2023/11/18 05:36:07;;;;;;;18.80;11.67;;;6.40;99.90;;;;;;5052701;28;20392;-62
2023/11/18 05:38:35;;;;;;;15.37;11.63;;;6.40;99.90;;;;;;5053661;28;20175;-62
2023/11/18 05:41:03;;;;;;;16.97;11.57;;;6.40;99.90;;;;;;5054268;28;20681;-62
2023/11/18 05:43:40;;;;;;;17.30;12.93;;;6.40;99.90;;;;;;5053326;28;20491;-62
2023/11/18 05:46:24;;;;;;;15.80;13.00;;;6.30;99.90;;;;;;5053036;28;20852;-62
2023/11/18 05:48:50;;;;;;;16.43;12.20;;;6.10;99.90;;;;;;5053735;28;20422;-60
2023/11/18 05:51:23;;;;;;;14.10;11.00;;;6.50;99.90;;;;;;5053515;28;20909;-62
2023/11/18 05:53:50;;;;;;;16.60;11.77;;;6.40;99.90;;;;;;5053073;28;20405;-62
2023/11/18 05:56:16;;;;;;;13.10;11.10;;;6.10;99.90;;;;;;5053088;28;20497;-62
2023/11/18 05:58:43;;;;;;;15.70;12.17;;;6.40;99.90;;;;;;5053777;28;20464;-62
2023/11/18 06:01:09;;;;;;;14.87;12.40;;;6.60;99.90;;;;;;5052354;28;20435;-62
2023/11/18 06:03:38;;;;;;;14.27;12.10;;;6.50;99.90;;;;;;5053628;28;20759;-63
2023/11/18 06:06:09;;;;;;;17.20;11.00;;;6.30;99.90;;;;;;5052277;28;20453;-62
2023/11/18 06:08:37;;;;;;;16.33;12.80;;;6.50;99.90;;;;;;5035962;28;20936;-62
2023/11/18 06:11:12;;;;;;;15.43;11.83;;;6.50;99.90;;;;;;5052902;28;20758;-64
2023/11/18 06:13:42;;;;;;;16.60;13.70;;;6.50;99.90;;;;;;5053093;28;20777;-63
2023/11/18 06:16:14;;;;;;;15.83;12.70;;;6.50;99.90;;;;;;5053016;28;20940;-63
2023/11/18 06:18:46;;;;;;;16.47;12.27;;;6.60;99.90;;;;;;5052975;28;20430;-63
2023/11/18 06:21:20;;;;;;;16.27;11.87;;;6.60;99.90;;;;;;5052038;28;20427;-62
2023/11/18 06:23:47;;;;;;;17.53;12.90;;;6.60;99.90;;;;;;5053118;28;20408;-62
2023/11/18 06:26:14;;;;;;;15.20;11.33;;;6.70;99.90;;;;;;5051993;28;20541;-62
2023/11/18 06:28:44;;;;;;;16.17;11.27;;;6.70;99.90;;;;;;5052944;28;21029;-63
2023/11/18 06:31:11;;;;;;;15.73;11.67;;;6.70;99.90;;;;;;5034215;28;20941;-62
2023/11/18 06:33:44;;;;;;;11.93;10.27;;;6.80;99.90;;;;;;5053829;28;20415;-63
2023/11/18 06:36:13;;;;;;;15.40;11.50;;;6.80;99.90;;;;;;5050922;28;20438;-62
2023/11/18 06:38:40;;;;;;;14.00;11.37;;;6.70;99.90;;;;;;5034969;28;20736;-62
2023/11/18 06:41:10;;;;;;;17.60;13.17;;;6.80;99.90;;;;;;5053046;28;20791;-61
2023/11/18 06:43:52;;;;;;;13.30;11.10;;;7.00;99.90;;;;;;5050418;28;20522;-61
2023/11/18 06:46:25;;;;;;;16.30;12.13;;;6.80;99.90;;;;;;5051534;28;20595;-62
2023/11/18 06:48:55;;;;;;;15.23;11.53;;;6.80;99.90;;;;;;5033761;28;20422;-62
2023/11/18 06:51:27;;;;;;;14.37;12.87;;;6.80;99.90;;;;;;5052006;28;20899;-61
2023/11/18 06:53:56;;;;;;;16.87;13.30;;;6.80;99.90;;;;;;5046510;28;20441;-62
2023/11/18 06:56:28;;;;;;;15.40;12.17;;;7.00;99.90;;;;;;5050253;28;20431;-60
2023/11/18 06:58:54;;;;;;;15.77;12.40;;;6.90;99.90;;;;;;5051047;28;20427;-62
2023/11/18 07:01:20;;;;;;;16.10;12.37;;;6.90;99.90;;;;;;5050895;28;20462;-62
2023/11/18 07:03:48;;;;;;;16.07;13.13;;;6.90;99.90;;;;;;5051761;28;20434;-62
2023/11/18 07:06:21;;;;;;;14.67;12.53;;;7.00;99.90;;;;;;5052673;28;20502;-62
2023/11/18 07:08:51;;;;;;;15.33;12.77;;;7.00;99.90;;;;;;5051325;28;20757;-62
2023/11/18 07:11:17;;;;;;;16.80;12.70;;;7.00;99.90;;;;;;5049958;28;20500;-62
2023/11/18 07:13:44;;;;;;;14.67;12.27;;;7.00;99.90;;;;;;5050220;28;20438;-62
2023/11/18 07:16:10;;;;;;;18.70;13.00;;;7.00;99.90;;;;;;5051903;28;20466;-62
2023/11/18 07:18:37;;;;;;;14.67;12.13;;;7.10;99.90;;;;;;5051538;28;20443;-63
2023/11/18 07:21:05;;;;;;;18.23;14.10;;;7.00;99.90;;;;;;5051639;28;20431;-63
2023/11/18 07:23:34;;;;;;;18.00;13.80;;;7.10;99.90;;;;;;5051036;28;20817;-65
2023/11/18 07:26:00;;;;;;;13.83;12.43;;;7.10;99.90;;;;;;5051607;28;20502;-63
2023/11/18 07:28:26;;;;;;;16.40;12.90;;;7.20;99.90;;;;;;5051729;28;20458;-65
2023/11/18 07:30:53;;;;;;;16.03;13.87;;;7.20;99.90;;;;;;5050464;28;20431;-63
2023/11/18 07:33:20;;;;;;;19.73;14.40;;;7.30;99.90;;;;;;5051767;28;20472;-63
2023/11/18 07:35:48;;;;;;;15.47;13.50;;;7.30;99.90;;;;;;5051877;28;20430;-63
2023/11/18 07:38:14;;;;;;;18.10;13.80;;;7.40;99.90;;;;;;5049107;28;20803;-63
2023/11/18 07:40:45;;;;;;;19.63;14.40;;;7.40;99.90;;;;;;5050916;28;20416;-63
2023/11/18 07:43:12;;;;;;;17.93;15.13;;;7.50;99.90;;;;;;5050883;28;20443;-63
2023/11/18 07:45:39;;;;;;;17.50;13.50;;;7.60;99.90;;;;;;5050631;28;20516;-61
2023/11/18 07:48:17;;;;;;;18.27;13.53;;;7.60;99.90;;;;;;5051282;28;20439;-64
2023/11/18 07:50:47;;;;;;;17.13;13.43;;;7.70;99.90;;;;;;5049911;28;20424;-63
2023/11/18 07:53:13;;;;;;;16.77;14.10;;;7.90;99.90;;;;;;5050737;28;20436;-63
2023/11/18 07:55:39;;;;;;;17.70;13.53;;;7.70;99.90;;;;;;5052482;28;20424;-64
2023/11/18 07:58:10;;;;;;;17.10;12.27;;;7.80;99.90;;;;;;5049904;28;20443;-63
2023/11/18 08:00:45;;;;;;;18.00;14.73;;;7.80;99.90;;;;;;5051213;28;20423;-62
2023/11/18 08:03:11;;;;;;;18.47;13.77;;;7.80;99.90;;;;;;5051531;28;20420;-62
2023/11/18 08:05:48;;;;;;;19.70;14.60;;;7.90;99.90;;;;;;5033127;28;20462;-61
2023/11/18 08:08:16;;;;;;;17.90;15.53;;;7.90;99.90;;;;;;5050053;28;20937;-61
2023/11/18 08:10:44;;;;;;;20.87;15.53;;;8.00;99.90;;;;;;5049019;28;20408;-61
2023/11/18 08:13:11;;;;;;;18.73;13.67;;;8.10;99.90;;;;;;5051878;28;20408;-61
2023/11/18 08:15:41;;;;;;;17.80;14.53;;;8.10;99.90;;;;;;5050642;28;20474;-61
2023/11/18 08:18:11;;;;;;;18.50;14.33;;;8.20;99.90;;;;;;5051035;28;20531;-62
2023/11/18 08:20:37;;;;;;;18.97;14.30;;;8.20;99.90;;;;;;5052049;28;20404;-61
2023/11/18 08:23:04;;;;;;;16.70;14.73;;;8.20;99.90;;;;;;5051815;28;20928;-66
2023/11/18 08:25:33;;;;;;;16.50;13.30;;;8.30;99.90;;;;;;5054093;28;20459;-63
2023/11/18 08:28:07;;;;;;;18.20;13.60;;;8.30;99.90;;;;;;5036150;28;20424;-63
2023/11/18 08:30:42;;;;;;;18.80;14.67;;;8.40;99.90;;;;;;5051268;28;20500;-63
2023/11/18 08:33:10;;;;;;;17.10;13.20;;;8.40;99.90;;;;;;5035209;28;20777;-63
2023/11/18 08:35:36;;;;;;;16.50;13.70;;;8.50;99.90;;;;;;5055439;28;20404;-64
2023/11/18 08:38:04;;;;;;;18.17;14.03;;;8.50;99.90;;;;;;5054524;28;20436;-64
2023/11/18 08:40:30;;;;;;;16.90;13.67;;;8.50;99.90;;;;;;5052370;28;20427;-63
2023/11/18 08:42:56;;;;;;;19.43;14.33;;;8.50;99.90;;;;;;5054982;28;20435;-61
2023/11/18 08:45:29;;;;;;;15.70;13.67;;;8.60;99.90;;;;;;5053506;28;20852;-61
2023/11/18 08:48:01;;;;;;;16.03;14.03;;;8.60;99.90;;;;;;5054409;28;20443;-62
2023/11/18 08:50:28;;;;;;;18.10;14.10;;;8.60;99.90;;;;;;5055057;28;20762;-62
2023/11/18 08:52:58;;;;;;;17.00;13.50;;;8.70;99.90;;;;;;5054776;28;20416;-62
2023/11/18 08:58:15;;;;;;;15.70;12.73;;;8.70;99.90;;;;;;5054443;28;20597;-63
2023/11/18 09:00:47;;;;;;;14.50;12.27;;;8.80;99.90;;;;;;5054100;28;20459;-62
2023/11/18 09:03:17;;;;;;;13.47;11.83;;;8.80;99.90;;;;;;5053903;28;20465;-63
2023/11/18 09:05:56;;;;;;;12.87;11.37;;;8.90;99.90;;;;;;5055095;28;20443;-62
2023/11/18 09:08:34;;;;;;;13.50;11.37;;;8.90;99.90;;;;;;5052229;28;20423;-63
2023/11/18 09:11:05;;;;;;;12.70;11.17;;;8.90;99.90;;;;;;5052888;28;20750;-62
2023/11/18 09:13:31;;;;;;;12.67;11.37;;;9.00;99.90;;;;;;5052716;28;20419;-63
2023/11/18 09:16:04;;;;;;;12.27;10.87;;;8.90;99.90;;;;;;5070891;28;20477;-62
2023/11/18 09:18:33;;;;;;;12.80;10.60;;;9.00;99.90;;;;;;5071552;28;20445;-62
2023/11/18 09:21:00;;;;;;;12.00;10.23;;;9.00;99.90;;;;;;5055785;28;20926;-61
2023/11/18 09:23:28;;;;;;;10.77;9.50;;;9.00;99.90;;;;;;5090624;28;20438;-72
2023/11/18 09:25:54;;;;;;;233.83;127.13;;;9.00;99.90;;;;;;5075852;28;20454;-72
2023/11/18 09:28:24;;;;;;;76.93;49.83;;;9.10;99.90;;;;;;5075944;28;20430;-73
2023/11/18 09:30:53;;;;;;;11.37;9.20;;;9.10;99.90;;;;;;5079059;28;20441;-73
2023/11/18 09:33:28;;;;;;;10.13;8.23;;;9.00;99.90;;;;;;5070315;28;20467;-73
2023/11/18 09:36:01;;;;;;;9.50;8.57;;;9.00;99.90;;;;;;5088863;28;20441;-70
2023/11/18 09:38:30;;;;;;;8.10;7.40;;;9.10;99.90;;;;;;5067943;28;20444;-73
2023/11/18 09:40:57;;;;;;;9.70;8.57;;;9.20;99.90;;;;;;5072000;28;20433;-73
2023/11/18 09:43:26;;;;;;;8.30;7.43;;;9.30;99.90;;;;;;5062511;28;20442;-72
2023/11/18 09:45:55;;;;;;;8.90;8.00;;;9.20;99.90;;;;;;5082707;28;20501;-72
2023/11/18 09:48:25;;;;;;;8.27;7.47;;;9.30;99.90;;;;;;5077876;28;20427;-71
2023/11/18 09:50:57;;;;;;;7.80;7.00;;;9.30;99.90;;;;;;5076098;28;20440;-72
2023/11/18 09:53:25;;;;;;;10.00;8.10;;;9.30;99.90;;;;;;5062252;28;20770;-73
2023/11/18 09:56:09;;;;;;;8.40;7.57;;;9.30;99.90;;;;;;5063511;28;20835;-69
2023/11/18 09:58:43;;;;;;;9.40;7.77;;;9.40;99.90;;;;;;5072997;28;20403;-73
2023/11/18 10:01:13;;;;;;;8.40;7.60;;;9.40;99.90;;;;;;5084286;28;20430;-73
2023/11/18 10:03:43;;;;;;;7.63;6.93;;;9.50;99.90;;;;;;5073912;28;20503;-73
2023/11/18 10:06:09;;;;;;;10.43;7.37;;;9.30;99.90;;;;;;5062774;28;20451;-73
2023/11/18 10:08:37;;;;;;;8.03;7.23;;;9.20;99.90;;;;;;5083361;28;20428;-74
2023/11/18 10:11:09;;;;;;;8.97;8.07;;;9.20;99.90;;;;;;5072795;28;20413;-74
2023/11/18 10:13:40;;;;;;;8.60;7.70;;;9.30;99.90;;;;;;5092863;28;20883;-74
2023/11/18 10:16:07;;;;;;;8.40;7.20;;;9.40;99.90;;;;;;5053062;28;1112161;-74
2023/11/18 10:18:37;;;;;;;51.50;33.40;;;9.40;99.90;;;;;;5093818;28;20259;-74
2023/11/18 10:21:11;;;;;;;315.40;149.73;;;9.50;99.90;;;;;;5058612;28;20533;-74
2023/11/18 10:23:37;;;;;;;27.03;18.20;;;9.50;99.90;;;;;;5086227;28;20790;-68
2023/11/18 10:26:04;;;;;;;9.70;8.30;;;9.60;99.90;;;;;;5072830;28;20535;-74
2023/11/18 10:28:35;;;;;;;8.57;7.70;;;9.60;99.90;;;;;;5081695;28;20431;-75
2023/11/18 10:31:04;;;;;;;8.07;7.10;;;9.60;99.90;;;;;;5073339;28;20538;-71
2023/11/18 10:33:37;;;;;;;8.27;7.30;;;9.70;99.90;;;;;;5075247;28;20831;-73
2023/11/18 10:36:05;;;;;;;8.73;7.77;;;9.70;99.90;;;;;;5067793;28;20436;-73
2023/11/18 10:38:32;;;;;;;9.40;7.23;;;9.70;99.90;;;;;;5066327;28;20960;-73
2023/11/18 10:41:02;;;;;;;10.80;7.57;;;9.80;99.90;;;;;;5075599;28;20428;-73
2023/11/18 10:43:30;;;;;;;9.47;6.43;;;9.80;99.90;;;;;;5064462;28;20512;-73
2023/11/18 10:46:13;;;;;;;8.97;6.57;;;9.90;99.90;;;;;;5056710;28;20984;-74
2023/11/18 10:48:49;;;;;;;7.10;6.50;;;9.90;99.90;;;;;;5091208;28;20425;-75
2023/11/18 10:51:20;;;;;;;7.77;6.47;;;9.90;99.90;;;;;;5092315;28;20736;-74
2023/11/18 10:53:58;;;;;;;7.57;6.80;;;9.90;99.90;;;;;;5071348;28;20806;-67
2023/11/18 10:56:28;;;;;;;8.60;7.33;;;9.70;99.90;;;;;;5072232;28;20415;-74
2023/11/18 10:59:06;;;;;;;7.20;6.50;;;9.70;99.90;;;;;;5079894;28;20435;-72
2023/11/18 11:01:33;;;;;;;7.67;6.70;;;9.70;99.90;;;;;;5076710;28;20425;-73
2023/11/18 11:03:59;;;;;;;8.73;7.33;;;9.50;99.90;;;;;;5073278;28;20406;-72
2023/11/18 11:06:26;;;;;;;7.77;6.97;;;9.60;99.90;;;;;;5068934;28;20896;-73
2023/11/18 11:08:52;;;;;;;7.80;7.00;;;9.70;99.90;;;;;;5093536;28;20761;-73
2023/11/18 11:11:21;;;;;;;7.73;6.93;;;9.80;99.90;;;;;;5062520;28;20826;-74
2023/11/18 11:13:52;;;;;;;9.67;8.30;;;9.90;99.90;;;;;;5085854;28;20502;-76
2023/11/18 11:16:19;;;;;;;8.00;7.20;;;9.90;99.90;;;;;;5057500;28;20469;-74
2023/11/18 11:18:53;;;;;;;8.73;7.53;;;9.90;99.90;;;;;;5051296;28;20429;-73
2023/11/18 11:21:28;;;;;;;6.87;6.27;;;10.00;99.90;;;;;;5051713;28;20510;-74
2023/11/18 11:24:00;;;;;;;382.70;203.07;;;10.00;99.90;;;;;;5049966;28;20438;-73
2023/11/18 11:26:54;;;;;;;18.50;14.20;;;9.80;99.90;;;;;;5033465;28;20542;-72
2023/11/18 11:29:35;;;;;;;10.10;6.90;;;9.90;99.90;;;;;;5051806;28;20423;-75
2023/11/18 11:32:18;;;;;;;7.87;7.10;;;9.90;99.90;;;;;;5052745;28;20386;-75
2023/11/18 11:34:56;;;;;;;7.80;7.00;;;9.90;99.90;;;;;;5051287;28;20427;-75
2023/11/18 11:37:25;;;;;;;6.60;5.93;;;9.90;99.90;;;;;;5051492;28;20474;-74
2023/11/18 11:39:54;;;;;;;7.60;6.90;;;10.00;99.90;;;;;;5052457;28;20461;-73
2023/11/18 11:42:21;;;;;;;7.17;6.47;;;9.80;99.90;;;;;;5050861;28;20429;-72
2023/11/18 11:44:53;;;;;;;8.13;7.33;;;9.80;99.90;;;;;;5050239;28;20462;-69
2023/11/18 11:47:22;;;;;;;7.97;7.17;;;9.90;99.90;;;;;;5051380;28;20427;-65
2023/11/18 11:49:57;;;;;;;8.40;7.60;;;10.00;99.90;;;;;;5032895;28;20414;-73
2023/11/18 11:52:37;;;;;;;7.97;7.17;;;10.00;99.90;;;;;;5030579;28;20407;-62
2023/11/18 11:55:06;;;;;;;9.23;6.97;;;10.00;99.90;;;;;;5033455;28;20456;-73
2023/11/18 11:57:36;;;;;;;7.00;6.40;;;10.00;99.90;;;;;;5051392;28;20926;-73
2023/11/18 12:00:14;;;;;;;7.90;7.10;;;10.00;99.90;;;;;;5036020;28;20945;-73
2023/11/18 12:02:54;;;;;;;7.00;6.30;;;10.00;99.90;;;;;;5049639;28;20431;-73
2023/11/18 12:05:25;;;;;;;8.07;6.63;;;10.00;99.90;;;;;;5051442;28;20795;-68
2023/11/18 12:07:54;;;;;;;7.07;6.47;;;9.90;99.90;;;;;;5046005;28;20407;-72
2023/11/18 12:10:22;;;;;;;8.60;7.63;;;9.90;99.90;;;;;;5050108;28;20425;-70
2023/11/18 12:12:48;;;;;;;7.67;7.00;;;10.00;99.90;;;;;;5030859;28;20824;-73
2023/11/18 12:15:17;;;;;;;7.57;7.07;;;9.90;99.90;;;;;;5042140;28;20457;-71
2023/11/18 12:17:56;;;;;;;236.07;130.87;;;10.00;99.90;;;;;;5063714;28;20426;-77
2023/11/18 12:20:53;;;;;;;21.40;18.00;;;10.00;99.90;;;;;;5068612;28;20515;-74
2023/11/18 12:23:23;;;;;;;7.90;7.20;;;10.00;99.90;;;;;;5070942;28;20522;-74
2023/11/18 12:25:54;;;;;;;6.40;5.90;;;9.90;99.90;;;;;;5069357;28;20456;-74
2023/11/18 12:28:26;;;;;;;7.13;6.53;;;9.90;99.90;;;;;;5071271;28;20404;-74
2023/11/18 12:31:05;;;;;;;6.70;6.00;;;9.80;99.90;;;;;;5070978;28;20428;-74
2023/11/18 12:34:00;;;;;;;9.07;6.30;;;9.80;99.90;;;;;;5070139;28;20429;-70
2023/11/18 12:36:38;;;;;;;7.60;7.00;;;9.80;99.90;;;;;;5070214;28;20935;-74
2023/11/18 12:39:13;;;;;;;7.63;6.83;;;9.80;99.90;;;;;;5069853;28;20417;-75
2023/11/18 12:41:40;;;;;;;7.73;6.93;;;9.70;99.90;;;;;;5066894;28;20508;-75
2023/11/18 12:44:22;;;;;;;8.23;7.43;;;9.60;99.90;;;;;;5071205;28;20479;-75
2023/11/18 12:46:55;;;;;;;9.17;8.47;;;9.70;99.90;;;;;;5070270;28;20415;-73
2023/11/18 12:49:25;;;;;;;6.90;6.40;;;9.80;99.90;;;;;;5069645;28;20418;-74
2023/11/18 12:51:54;;;;;;;7.17;6.57;;;9.80;99.90;;;;;;5070319;28;20425;-74